»·PEaware :: N8680J KABR-KAPA

N8680J :: KABR-KAPA

FLIGHT INFORMATION

Flight Status: Arrived
Operator: Privately registered:
United States
More flights under this callsign
Pilot: Tyler J. (19619)
Aircraft: PIPER PA-42-1000 CHEYENNE 400
(PAY4)
More flights by this aircraft type
Origin: KABR Aberdeen Regl
United States
Destination: KAPA Centennial
United States
More flights between these airports :: More routes between these airports
Route: + ANW SNY LANDR9
File this flight plan on PilotEdge
Remarks:
Altitude:
(Current/Filed)
27,000ft
Speed:
(Current/Filed)
300kts
Departed: 11-Jun-19 01:40 PM
Arrived: 11-Jun-19 03:28 PM
Distance/Time
Traveled:
452nm/1:48
Distance/Time
To Go:
Arrived

Flight Plot

Page will automatically refresh every two minutes.


Map Options




Map Legend


Flown Route
Filed Route
Departure Airport
Arrival Airport
Navaid (VOR, NDB)
Fix

Horizontal Profiles

Position Reports

Time Latitude Longitude Heading Altitude Ground
Speed
11-Jun-19 13:33 45.448460 -98.416779 131 1306ft 10kts
11-Jun-19 13:34 45.446237 -98.413455 134 1306ft 10kts
11-Jun-19 13:35 45.444168 -98.410511 134 1306ft 11kts
11-Jun-19 13:36 45.442767 -98.408589 137 1306ft 4kts
11-Jun-19 13:37 45.442211 -98.408746 219 1306ft 0kts
11-Jun-19 13:38 45.442428 -98.409929 312 1306ft 33kts
11-Jun-19 13:39 45.464333 -98.447734 280 2567ft 154kts
11-Jun-19 13:40 45.433343 -98.482933 182 4444ft 171kts
11-Jun-19 13:41 45.383303 -98.490961 197 6013ft 190kts
11-Jun-19 13:42 45.328912 -98.519049 199 6465ft 230kts
11-Jun-19 13:43 45.265802 -98.549422 199 6890ft 233kts
11-Jun-19 13:44 45.205657 -98.571947 187 8375ft 219kts
11-Jun-19 13:45 45.144914 -98.575217 185 9875ft 216kts
11-Jun-19 13:46 45.085122 -98.569705 175 11373ft 216kts
11-Jun-19 13:47 45.025511 -98.556422 178 12874ft 216kts
11-Jun-19 13:48 44.967835 -98.574310 199 14376ft 215kts
11-Jun-19 13:49 44.910360 -98.599575 203 15872ft 215kts
11-Jun-19 13:50 44.860434 -98.651541 218 16449ft 241kts
11-Jun-19 13:51 44.803477 -98.709335 212 16498ft 260kts
11-Jun-19 13:52 44.735213 -98.748806 193 16496ft 270kts
11-Jun-19 13:53 44.659536 -98.747342 174 16495ft 276kts
11-Jun-19 13:54 44.590912 -98.784778 214 16496ft 270kts
11-Jun-19 13:55 44.528324 -98.843346 214 16642ft 266kts
11-Jun-19 13:56 44.468133 -98.893760 210 18006ft 240kts
11-Jun-19 13:57 44.411881 -98.937647 209 19385ft 225kts
11-Jun-19 13:58 44.356652 -98.975573 205 20775ft 217kts
11-Jun-19 13:59 44.300488 -99.005802 200 22042ft 219kts
11-Jun-19 14:00 44.240326 -99.033388 199 22863ft 233kts
11-Jun-19 14:01 44.177623 -99.062508 201 23668ft 240kts
11-Jun-19 14:02 44.112960 -99.096412 203 24480ft 259kts
11-Jun-19 14:03 44.044636 -99.136583 204 25289ft 272kts
11-Jun-19 14:04 43.974860 -99.178614 204 26024ft 276kts
11-Jun-19 14:05 43.904296 -99.219363 203 26108ft 291kts
11-Jun-19 14:06 43.827622 -99.260852 202 26111ft 298kts
11-Jun-19 14:07 43.749490 -99.301096 201 26112ft 301kts
11-Jun-19 14:08 43.670695 -99.342319 201 26114ft 302kts
11-Jun-19 14:09 43.591786 -99.382437 201 26121ft 302kts
11-Jun-19 14:10 43.513538 -99.424043 202 26124ft 302kts
11-Jun-19 14:11 43.435915 -99.467463 203 26127ft 301kts
11-Jun-19 14:12 43.358168 -99.511704 203 26130ft 302kts
11-Jun-19 14:13 43.280101 -99.555366 202 26133ft 303kts
11-Jun-19 14:14 43.204113 -99.605823 207 26139ft 303kts
11-Jun-19 14:15 43.128231 -99.656513 206 26145ft 303kts
11-Jun-19 14:16 43.051709 -99.705337 205 26147ft 303kts
11-Jun-19 14:17 42.974855 -99.753504 205 26148ft 304kts
11-Jun-19 14:18 42.897735 -99.801471 205 26149ft 304kts
11-Jun-19 14:19 42.820462 -99.849259 205 26150ft 305kts
11-Jun-19 14:20 42.743135 -99.896766 205 26154ft 304kts
11-Jun-19 14:21 42.665718 -99.943822 204 26154ft 304kts
11-Jun-19 14:22 42.587913 -99.989460 202 26156ft 304kts
11-Jun-19 14:23 42.512250 -100.036496 204 26221ft 305kts
11-Jun-19 14:24 42.436060 -100.088193 220 26130ft 305kts
11-Jun-19 14:25 42.378576 -100.171293 231 26170ft 301kts
11-Jun-19 14:26 42.330946 -100.264626 239 26167ft 302kts
11-Jun-19 14:27 42.292826 -100.365542 245 26173ft 301kts
11-Jun-19 14:28 42.261752 -100.465258 247 26176ft 301kts
11-Jun-19 14:29 42.227858 -100.568558 243 26179ft 301kts
11-Jun-19 14:30 42.187271 -100.666895 237 26180ft 300kts
11-Jun-19 14:31 42.139040 -100.759222 232 26178ft 301kts
11-Jun-19 14:32 42.087565 -100.847824 232 26181ft 300kts
11-Jun-19 14:33 42.038117 -100.938247 235 26181ft 300kts
11-Jun-19 14:34 41.994124 -101.033557 240 26182ft 299kts
11-Jun-19 14:35 41.955428 -101.132072 242 26189ft 298kts
11-Jun-19 14:36 41.917242 -101.231014 241 26190ft 297kts
11-Jun-19 14:37 41.875972 -101.326360 237 26198ft 294kts
11-Jun-19 14:38 41.830449 -101.417629 234 26194ft 294kts
11-Jun-19 14:39 41.783008 -101.507510 235 26191ft 296kts
11-Jun-19 14:40 41.738079 -101.600134 238 26193ft 296kts
11-Jun-19 14:41 41.696630 -101.695434 240 26194ft 296kts
11-Jun-19 14:42 41.656196 -101.790929 239 26206ft 295kts
11-Jun-19 14:43 41.613042 -101.884741 237 26195ft 297kts
11-Jun-19 14:44 41.567534 -101.977378 236 26205ft 297kts
11-Jun-19 14:45 41.523247 -102.070168 238 26204ft 296kts
11-Jun-19 14:46 41.481750 -102.161070 238 24946ft 326kts
11-Jun-19 14:47 41.434199 -102.264823 238 24255ft 320kts
11-Jun-19 14:48 41.387957 -102.362984 237 24254ft 308kts
11-Jun-19 14:49 41.342683 -102.459119 238 24265ft 304kts
11-Jun-19 14:51 41.298272 -102.554535 238 24263ft 304kts
11-Jun-19 14:52 41.253425 -102.650007 238 24257ft 304kts
11-Jun-19 14:53 41.208743 -102.745023 238 24264ft 303kts
11-Jun-19 14:54 41.161673 -102.845007 238 22607ft 328kts
11-Jun-19 14:55 41.107749 -102.943809 230 20911ft 332kts
11-Jun-19 14:56 41.048668 -103.034836 227 19206ft 318kts
11-Jun-19 14:57 40.990257 -103.120875 227 17507ft 311kts
11-Jun-19 14:58 40.934775 -103.201303 225 15410ft 281kts
11-Jun-19 14:59 40.882753 -103.275337 223 13605ft 273kts
11-Jun-19 15:00 40.830921 -103.349937 225 12468ft 281kts
11-Jun-19 15:01 40.777924 -103.427098 226 11670ft 284kts
11-Jun-19 15:02 40.724785 -103.503830 226 11262ft 277kts
11-Jun-19 15:03 40.672252 -103.578183 225 11261ft 280kts
11-Jun-19 15:04 40.617415 -103.653582 223 11006ft 287kts
11-Jun-19 15:05 40.562165 -103.728389 229 10993ft 284kts
11-Jun-19 15:06 40.511034 -103.807339 227 10992ft 284kts
11-Jun-19 15:07 40.457490 -103.883495 225 10997ft 283kts
11-Jun-19 15:08 40.402929 -103.958281 225 10995ft 283kts
11-Jun-19 15:09 40.348154 -104.032467 225 10995ft 283kts
11-Jun-19 15:09 40.302558 -104.093903 225 10998ft 283kts
11-Jun-19 15:11 40.239232 -104.178887 225 10996ft 283kts
11-Jun-19 15:12 40.181353 -104.247864 205 10998ft 281kts
11-Jun-19 15:12 40.120689 -104.279137 198 10995ft 281kts
11-Jun-19 15:13 40.047646 -104.313226 198 10986ft 256kts
11-Jun-19 15:14 39.984633 -104.342957 198 10992ft 234kts
11-Jun-19 15:15 39.924206 -104.371650 198 10995ft 229kts
11-Jun-19 15:16 39.863638 -104.400407 198 10995ft 235kts
11-Jun-19 15:17 39.801198 -104.429888 198 10994ft 240kts
11-Jun-19 15:18 39.738320 -104.459730 198 10997ft 241kts
11-Jun-19 15:19 39.672251 -104.492195 207 10057ft 267kts
11-Jun-19 15:20 39.624920 -104.553702 228 8953ft 220kts
11-Jun-19 15:21 39.586703 -104.611029 228 8045ft 194kts
11-Jun-19 15:22 39.552061 -104.664009 230 8015ft 212kts
11-Jun-19 15:23 39.515851 -104.728257 251 8046ft 220kts
11-Jun-19 15:24 39.509152 -104.793808 269 7494ft 168kts
11-Jun-19 15:25 39.520377 -104.846238 341 6716ft 133kts
11-Jun-19 15:26 39.553789 -104.850211 0 6002ft 120kts
11-Jun-19 15:27 39.570250 -104.850427 149 5887ft 7kts
11-Jun-19 15:28 39.571647 -104.849742 357 5887ft 18kts
11-Jun-19 15:29 39.577206 -104.849930 39 5887ft 12kts

Navigation Log

Ident Type
Flight plan parsing failed, navigation log unavailable